sensor_id;sensor_type;location;lat;lon;timestamp;P1;durP1;ratioP1;P2;durP2;ratioP2
50671;SDS011;46021;55.882;37.654;2024-02-21T00:01:58;14.77;;;5.80;;
50671;SDS011;46021;55.882;37.654;2024-02-21T00:04:25;28.90;;;6.30;;
50671;SDS011;46021;55.882;37.654;2024-02-21T00:06:52;12.23;;;5.77;;
50671;SDS011;46021;55.882;37.654;2024-02-21T00:09:21;7.53;;;4.63;;
50671;SDS011;46021;55.882;37.654;2024-02-21T00:11:48;6.20;;;3.55;;
50671;SDS011;46021;55.882;37.654;2024-02-21T00:14:15;15.60;;;6.10;;
50671;SDS011;46021;55.882;37.654;2024-02-21T00:16:42;11.07;;;5.55;;
50671;SDS011;46021;55.882;37.654;2024-02-21T00:19:09;9.67;;;5.07;;
50671;SDS011;46021;55.882;37.654;2024-02-21T00:21:36;13.90;;;5.93;;
50671;SDS011;46021;55.882;37.654;2024-02-21T00:24:03;13.17;;;7.47;;
50671;SDS011;46021;55.882;37.654;2024-02-21T00:26:32;9.85;;;5.65;;
50671;SDS011;46021;55.882;37.654;2024-02-21T00:29:00;20.02;;;5.15;;
50671;SDS011;46021;55.882;37.654;2024-02-21T00:31:27;9.82;;;4.43;;
50671;SDS011;46021;55.882;37.654;2024-02-21T00:33:54;12.63;;;5.82;;
50671;SDS011;46021;55.882;37.654;2024-02-21T00:36:21;9.77;;;4.67;;
50671;SDS011;46021;55.882;37.654;2024-02-21T00:38:48;11.20;;;4.70;;
50671;SDS011;46021;55.882;37.654;2024-02-21T00:41:15;11.45;;;4.50;;
50671;SDS011;46021;55.882;37.654;2024-02-21T00:43:44;10.70;;;5.00;;
50671;SDS011;46021;55.882;37.654;2024-02-21T00:46:11;13.35;;;4.47;;
50671;SDS011;46021;55.882;37.654;2024-02-21T00:48:38;19.98;;;5.18;;
50671;SDS011;46021;55.882;37.654;2024-02-21T00:51:05;10.75;;;4.03;;
50671;SDS011;46021;55.882;37.654;2024-02-21T00:53:32;9.03;;;4.50;;
50671;SDS011;46021;55.882;37.654;2024-02-21T00:55:59;13.70;;;6.13;;
50671;SDS011;46021;55.882;37.654;2024-02-21T00:58:26;4.97;;;2.80;;
50671;SDS011;46021;55.882;37.654;2024-02-21T01:00:55;4.73;;;2.90;;
50671;SDS011;46021;55.882;37.654;2024-02-21T01:03:22;15.45;;;6.30;;
50671;SDS011;46021;55.882;37.654;2024-02-21T01:05:49;5.43;;;3.67;;
50671;SDS011;46021;55.882;37.654;2024-02-21T01:08:16;7.47;;;3.80;;
50671;SDS011;46021;55.882;37.654;2024-02-21T01:10:43;13.20;;;6.13;;
50671;SDS011;46021;55.882;37.654;2024-02-21T01:13:10;9.38;;;5.63;;
50671;SDS011;46021;55.882;37.654;2024-02-21T01:15:37;7.60;;;1.97;;
50671;SDS011;46021;55.882;37.654;2024-02-21T01:18:06;9.20;;;5.93;;
50671;SDS011;46021;55.882;37.654;2024-02-21T01:20:33;11.57;;;5.72;;
50671;SDS011;46021;55.882;37.654;2024-02-21T01:23:00;10.00;;;3.90;;
50671;SDS011;46021;55.882;37.654;2024-02-21T01:25:27;15.00;;;6.17;;
50671;SDS011;46021;55.882;37.654;2024-02-21T01:27:54;9.70;;;5.40;;
50671;SDS011;46021;55.882;37.654;2024-02-21T01:30:21;6.55;;;4.40;;
50671;SDS011;46021;55.882;37.654;2024-02-21T01:32:49;11.97;;;3.40;;
50671;SDS011;46021;55.882;37.654;2024-02-21T01:35:17;6.67;;;4.43;;
50671;SDS011;46021;55.882;37.654;2024-02-21T01:37:44;10.73;;;6.38;;
50671;SDS011;46021;55.882;37.654;2024-02-21T01:40:12;8.85;;;4.75;;
50671;SDS011;46021;55.882;37.654;2024-02-21T01:42:39;7.63;;;4.72;;
50671;SDS011;46021;55.882;37.654;2024-02-21T01:45:06;13.13;;;6.13;;
50671;SDS011;46021;55.882;37.654;2024-02-21T01:47:34;13.57;;;7.10;;
50671;SDS011;46021;55.882;37.654;2024-02-21T01:50:01;16.83;;;8.35;;
50671;SDS011;46021;55.882;37.654;2024-02-21T01:52:31;5.85;;;3.65;;
50671;SDS011;46021;55.882;37.654;2024-02-21T01:55:00;14.20;;;5.75;;
50671;SDS011;46021;55.882;37.654;2024-02-21T01:57:27;5.20;;;4.15;;
50671;SDS011;46021;55.882;37.654;2024-02-21T01:59:55;15.57;;;5.53;;
50671;SDS011;46021;55.882;37.654;2024-02-21T02:02:22;13.07;;;7.18;;
50671;SDS011;46021;55.882;37.654;2024-02-21T02:04:50;9.60;;;5.97;;
50671;SDS011;46021;55.882;37.654;2024-02-21T02:07:18;10.40;;;6.22;;
50671;SDS011;46021;55.882;37.654;2024-02-21T02:09:46;7.13;;;4.87;;
50671;SDS011;46021;55.882;37.654;2024-02-21T02:12:14;12.40;;;5.75;;
50671;SDS011;46021;55.882;37.654;2024-02-21T02:14:41;7.07;;;4.40;;
50671;SDS011;46021;55.882;37.654;2024-02-21T02:17:08;11.25;;;6.03;;
50671;SDS011;46021;55.882;37.654;2024-02-21T02:19:36;15.30;;;7.85;;
50671;SDS011;46021;55.882;37.654;2024-02-21T02:22:05;13.60;;;6.32;;
50671;SDS011;46021;55.882;37.654;2024-02-21T02:24:37;9.48;;;5.18;;
50671;SDS011;46021;55.882;37.654;2024-02-21T02:27:04;15.32;;;5.78;;
50671;SDS011;46021;55.882;37.654;2024-02-21T02:29:32;17.77;;;7.97;;
50671;SDS011;46021;55.882;37.654;2024-02-21T02:31:59;10.73;;;5.10;;
50671;SDS011;46021;55.882;37.654;2024-02-21T02:34:26;9.82;;;5.82;;
50671;SDS011;46021;55.882;37.654;2024-02-21T02:36:54;8.65;;;4.13;;
50671;SDS011;46021;55.882;37.654;2024-02-21T02:39:21;8.68;;;4.53;;
50671;SDS011;46021;55.882;37.654;2024-02-21T02:41:49;10.40;;;6.22;;
50671;SDS011;46021;55.882;37.654;2024-02-21T02:44:16;16.20;;;3.42;;
50671;SDS011;46021;55.882;37.654;2024-02-21T02:46:43;12.33;;;5.63;;
50671;SDS011;46021;55.882;37.654;2024-02-21T02:49:11;14.55;;;4.40;;
50671;SDS011;46021;55.882;37.654;2024-02-21T02:51:40;8.23;;;3.73;;
50671;SDS011;46021;55.882;37.654;2024-02-21T02:54:09;7.63;;;4.40;;
50671;SDS011;46021;55.882;37.654;2024-02-21T02:56:36;9.10;;;5.07;;
50671;SDS011;46021;55.882;37.654;2024-02-21T02:59:04;11.70;;;5.97;;
50671;SDS011;46021;55.882;37.654;2024-02-21T03:01:33;12.93;;;5.90;;
50671;SDS011;46021;55.882;37.654;2024-02-21T03:04:01;8.23;;;3.88;;
50671;SDS011;46021;55.882;37.654;2024-02-21T03:06:28;8.05;;;5.03;;
50671;SDS011;46021;55.882;37.654;2024-02-21T03:08:55;12.23;;;6.27;;
50671;SDS011;46021;55.882;37.654;2024-02-21T03:11:23;12.73;;;6.13;;
50671;SDS011;46021;55.882;37.654;2024-02-21T03:13:54;9.77;;;3.22;;
50671;SDS011;46021;55.882;37.654;2024-02-21T03:18:50;7.23;;;3.17;;
50671;SDS011;46021;55.882;37.654;2024-02-21T03:21:17;12.50;;;5.83;;
50671;SDS011;46021;55.882;37.654;2024-02-21T03:23:45;15.83;;;6.73;;
50671;SDS011;46021;55.882;37.654;2024-02-21T03:26:12;4.47;;;2.97;;
50671;SDS011;46021;55.882;37.654;2024-02-21T03:28:42;15.63;;;5.88;;
50671;SDS011;46021;55.882;37.654;2024-02-21T03:31:10;7.60;;;4.35;;
50671;SDS011;46021;55.882;37.654;2024-02-21T03:33:39;12.73;;;5.72;;
50671;SDS011;46021;55.882;37.654;2024-02-21T03:36:06;18.85;;;5.93;;
50671;SDS011;46021;55.882;37.654;2024-02-21T03:38:39;10.52;;;5.45;;
50671;SDS011;46021;55.882;37.654;2024-02-21T03:41:06;12.60;;;4.07;;
50671;SDS011;46021;55.882;37.654;2024-02-21T03:43:33;11.30;;;4.75;;
50671;SDS011;46021;55.882;37.654;2024-02-21T03:46:00;12.93;;;6.27;;
50671;SDS011;46021;55.882;37.654;2024-02-21T03:48:27;10.17;;;4.73;;
50671;SDS011;46021;55.882;37.654;2024-02-21T03:50:56;11.27;;;5.90;;
50671;SDS011;46021;55.882;37.654;2024-02-21T03:53:23;13.32;;;6.63;;
50671;SDS011;46021;55.882;37.654;2024-02-21T03:55:50;18.15;;;5.10;;
50671;SDS011;46021;55.882;37.654;2024-02-21T03:58:17;13.47;;;6.37;;
50671;SDS011;46021;55.882;37.654;2024-02-21T04:00:45;7.32;;;3.88;;
50671;SDS011;46021;55.882;37.654;2024-02-21T04:03:12;14.80;;;6.03;;
50671;SDS011;46021;55.882;37.654;2024-02-21T04:05:39;8.50;;;5.97;;
50671;SDS011;46021;55.882;37.654;2024-02-21T04:08:07;11.02;;;5.35;;
50671;SDS011;46021;55.882;37.654;2024-02-21T04:10:35;9.48;;;4.75;;
50671;SDS011;46021;55.882;37.654;2024-02-21T04:13:02;9.43;;;4.20;;
50671;SDS011;46021;55.882;37.654;2024-02-21T04:17:57;5.25;;;3.88;;
50671;SDS011;46021;55.882;37.654;2024-02-21T04:20:24;9.53;;;4.73;;
50671;SDS011;46021;55.882;37.654;2024-02-21T04:22:51;6.45;;;3.28;;
50671;SDS011;46021;55.882;37.654;2024-02-21T04:25:20;6.25;;;4.35;;
50671;SDS011;46021;55.882;37.654;2024-02-21T04:27:47;12.35;;;5.63;;
50671;SDS011;46021;55.882;37.654;2024-02-21T04:30:14;11.10;;;6.00;;
50671;SDS011;46021;55.882;37.654;2024-02-21T04:32:42;13.52;;;6.15;;
50671;SDS011;46021;55.882;37.654;2024-02-21T04:35:09;11.67;;;5.90;;
50671;SDS011;46021;55.882;37.654;2024-02-21T04:37:36;9.70;;;3.97;;
50671;SDS011;46021;55.882;37.654;2024-02-21T04:40:04;12.70;;;5.93;;
50671;SDS011;46021;55.882;37.654;2024-02-21T04:42:33;11.73;;;4.72;;
50671;SDS011;46021;55.882;37.654;2024-02-21T04:45:01;39.03;;;4.25;;
50671;SDS011;46021;55.882;37.654;2024-02-21T04:47:30;15.35;;;6.95;;
50671;SDS011;46021;55.882;37.654;2024-02-21T04:49:57;7.40;;;4.38;;
50671;SDS011;46021;55.882;37.654;2024-02-21T04:52:24;9.98;;;3.53;;
50671;SDS011;46021;55.882;37.654;2024-02-21T04:54:51;15.43;;;8.20;;
50671;SDS011;46021;55.882;37.654;2024-02-21T04:57:18;15.10;;;6.83;;
50671;SDS011;46021;55.882;37.654;2024-02-21T04:59:47;15.10;;;5.00;;
50671;SDS011;46021;55.882;37.654;2024-02-21T05:02:14;10.25;;;5.05;;
50671;SDS011;46021;55.882;37.654;2024-02-21T05:04:42;8.45;;;5.15;;
50671;SDS011;46021;55.882;37.654;2024-02-21T05:07:09;8.18;;;5.15;;
50671;SDS011;46021;55.882;37.654;2024-02-21T05:09:37;15.38;;;7.57;;
50671;SDS011;46021;55.882;37.654;2024-02-21T05:12:04;11.87;;;5.67;;
50671;SDS011;46021;55.882;37.654;2024-02-21T05:14:32;13.23;;;6.80;;
50671;SDS011;46021;55.882;37.654;2024-02-21T05:17:00;13.93;;;5.03;;
50671;SDS011;46021;55.882;37.654;2024-02-21T05:19:27;11.45;;;5.78;;
50671;SDS011;46021;55.882;37.654;2024-02-21T05:21:54;12.00;;;6.10;;
50671;SDS011;46021;55.882;37.654;2024-02-21T05:24:22;11.27;;;6.80;;
50671;SDS011;46021;55.882;37.654;2024-02-21T05:26:49;11.03;;;6.07;;
50671;SDS011;46021;55.882;37.654;2024-02-21T05:29:16;15.80;;;8.20;;
50671;SDS011;46021;55.882;37.654;2024-02-21T05:31:54;7.53;;;4.20;;
50671;SDS011;46021;55.882;37.654;2024-02-21T05:34:24;16.15;;;7.55;;
50671;SDS011;46021;55.882;37.654;2024-02-21T05:36:52;15.05;;;6.88;;
50671;SDS011;46021;55.882;37.654;2024-02-21T05:39:19;9.02;;;5.03;;
50671;SDS011;46021;55.882;37.654;2024-02-21T05:41:48;17.35;;;6.03;;
50671;SDS011;46021;55.882;37.654;2024-02-21T05:44:16;11.88;;;6.32;;
50671;SDS011;46021;55.882;37.654;2024-02-21T05:46:43;17.02;;;7.00;;
50671;SDS011;46021;55.882;37.654;2024-02-21T05:49:10;15.50;;;6.20;;
50671;SDS011;46021;55.882;37.654;2024-02-21T05:51:39;8.90;;;5.20;;
50671;SDS011;46021;55.882;37.654;2024-02-21T05:54:06;14.57;;;5.28;;
50671;SDS011;46021;55.882;37.654;2024-02-21T05:56:33;14.05;;;6.30;;
50671;SDS011;46021;55.882;37.654;2024-02-21T05:59:00;8.35;;;5.03;;
50671;SDS011;46021;55.882;37.654;2024-02-21T06:01:27;12.60;;;5.68;;
50671;SDS011;46021;55.882;37.654;2024-02-21T06:03:55;7.95;;;4.68;;
50671;SDS011;46021;55.882;37.654;2024-02-21T06:06:22;9.35;;;5.38;;
50671;SDS011;46021;55.882;37.654;2024-02-21T06:11:18;9.38;;;4.07;;
50671;SDS011;46021;55.882;37.654;2024-02-21T06:13:45;9.07;;;4.53;;
50671;SDS011;46021;55.882;37.654;2024-02-21T06:16:12;11.40;;;5.27;;
50671;SDS011;46021;55.882;37.654;2024-02-21T06:18:39;12.80;;;5.53;;
50671;SDS011;46021;55.882;37.654;2024-02-21T06:21:07;19.05;;;9.57;;
50671;SDS011;46021;55.882;37.654;2024-02-21T06:23:34;17.50;;;7.07;;
50671;SDS011;46021;55.882;37.654;2024-02-21T06:26:05;16.13;;;7.05;;
50671;SDS011;46021;55.882;37.654;2024-02-21T06:28:32;13.85;;;5.88;;
50671;SDS011;46021;55.882;37.654;2024-02-21T06:30:59;12.00;;;5.13;;
50671;SDS011;46021;55.882;37.654;2024-02-21T06:33:26;18.50;;;8.20;;
50671;SDS011;46021;55.882;37.654;2024-02-21T06:35:53;10.07;;;5.17;;
50671;SDS011;46021;55.882;37.654;2024-02-21T06:38:20;11.47;;;5.67;;
50671;SDS011;46021;55.882;37.654;2024-02-21T06:40:47;13.95;;;7.45;;
50671;SDS011;46021;55.882;37.654;2024-02-21T06:43:19;10.32;;;4.95;;
50671;SDS011;46021;55.882;37.654;2024-02-21T06:45:47;14.88;;;6.50;;
50671;SDS011;46021;55.882;37.654;2024-02-21T06:48:17;13.20;;;5.25;;
50671;SDS011;46021;55.882;37.654;2024-02-21T06:50:45;10.23;;;6.40;;
50671;SDS011;46021;55.882;37.654;2024-02-21T06:53:12;11.45;;;5.75;;
50671;SDS011;46021;55.882;37.654;2024-02-21T06:55:39;14.50;;;6.30;;
50671;SDS011;46021;55.882;37.654;2024-02-21T06:58:06;19.87;;;8.67;;
50671;SDS011;46021;55.882;37.654;2024-02-21T07:00:39;15.80;;;6.45;;
50671;SDS011;46021;55.882;37.654;2024-02-21T07:03:06;15.75;;;7.63;;
50671;SDS011;46021;55.882;37.654;2024-02-21T07:05:33;17.52;;;7.53;;
50671;SDS011;46021;55.882;37.654;2024-02-21T07:08:00;18.67;;;7.53;;
50671;SDS011;46021;55.882;37.654;2024-02-21T07:10:28;19.27;;;7.82;;
50671;SDS011;46021;55.882;37.654;2024-02-21T07:12:55;22.60;;;10.55;;
50671;SDS011;46021;55.882;37.654;2024-02-21T07:15:22;16.53;;;8.47;;
50671;SDS011;46021;55.882;37.654;2024-02-21T07:17:54;13.63;;;7.30;;
50671;SDS011;46021;55.882;37.654;2024-02-21T07:20:21;14.63;;;6.00;;
50671;SDS011;46021;55.882;37.654;2024-02-21T07:22:48;11.70;;;5.33;;
50671;SDS011;46021;55.882;37.654;2024-02-21T07:25:15;14.17;;;6.53;;
50671;SDS011;46021;55.882;37.654;2024-02-21T07:27:43;10.23;;;5.47;;
50671;SDS011;46021;55.882;37.654;2024-02-21T07:30:10;11.93;;;5.63;;
50671;SDS011;46021;55.882;37.654;2024-02-21T07:32:38;17.58;;;7.80;;
50671;SDS011;46021;55.882;37.654;2024-02-21T07:35:07;22.90;;;7.15;;
50671;SDS011;46021;55.882;37.654;2024-02-21T07:37:37;15.35;;;7.55;;
50671;SDS011;46021;55.882;37.654;2024-02-21T07:40:05;15.00;;;7.17;;
50671;SDS011;46021;55.882;37.654;2024-02-21T07:42:33;23.30;;;7.72;;
50671;SDS011;46021;55.882;37.654;2024-02-21T07:45:00;14.68;;;7.43;;
50671;SDS011;46021;55.882;37.654;2024-02-21T07:47:30;14.60;;;6.95;;
50671;SDS011;46021;55.882;37.654;2024-02-21T07:49:57;20.27;;;7.53;;
50671;SDS011;46021;55.882;37.654;2024-02-21T07:52:25;16.98;;;7.07;;
50671;SDS011;46021;55.882;37.654;2024-02-21T07:54:52;20.55;;;7.07;;
50671;SDS011;46021;55.882;37.654;2024-02-21T07:57:19;15.82;;;8.35;;
50671;SDS011;46021;55.882;37.654;2024-02-21T07:59:47;17.80;;;7.68;;
50671;SDS011;46021;55.882;37.654;2024-02-21T08:02:14;20.00;;;7.93;;
50671;SDS011;46021;55.882;37.654;2024-02-21T08:04:42;23.02;;;9.55;;
50671;SDS011;46021;55.882;37.654;2024-02-21T08:07:09;13.70;;;7.28;;
50671;SDS011;46021;55.882;37.654;2024-02-21T08:09:39;21.30;;;8.70;;
50671;SDS011;46021;55.882;37.654;2024-02-21T08:12:06;12.82;;;7.05;;
50671;SDS011;46021;55.882;37.654;2024-02-21T08:14:33;17.65;;;8.23;;
50671;SDS011;46021;55.882;37.654;2024-02-21T08:17:00;20.42;;;8.30;;
50671;SDS011;46021;55.882;37.654;2024-02-21T08:19:29;16.98;;;7.30;;
50671;SDS011;46021;55.882;37.654;2024-02-21T08:21:56;19.27;;;8.63;;
50671;SDS011;46021;55.882;37.654;2024-02-21T08:24:23;14.98;;;6.72;;
50671;SDS011;46021;55.882;37.654;2024-02-21T08:26:52;18.67;;;8.40;;
50671;SDS011;46021;55.882;37.654;2024-02-21T08:29:19;15.23;;;7.88;;
50671;SDS011;46021;55.882;37.654;2024-02-21T08:31:46;16.60;;;7.93;;
50671;SDS011;46021;55.882;37.654;2024-02-21T08:34:13;17.45;;;8.98;;
50671;SDS011;46021;55.882;37.654;2024-02-21T08:36:40;14.85;;;7.30;;
50671;SDS011;46021;55.882;37.654;2024-02-21T08:39:08;17.23;;;6.90;;
50671;SDS011;46021;55.882;37.654;2024-02-21T08:41:36;13.57;;;7.32;;
50671;SDS011;46021;55.882;37.654;2024-02-21T08:44:05;20.70;;;8.30;;
50671;SDS011;46021;55.882;37.654;2024-02-21T08:46:32;17.58;;;8.07;;
50671;SDS011;46021;55.882;37.654;2024-02-21T08:49:00;13.50;;;7.18;;
50671;SDS011;46021;55.882;37.654;2024-02-21T08:51:28;20.67;;;8.38;;
50671;SDS011;46021;55.882;37.654;2024-02-21T08:53:55;28.63;;;9.67;;
50671;SDS011;46021;55.882;37.654;2024-02-21T08:56:23;21.25;;;8.65;;
50671;SDS011;46021;55.882;37.654;2024-02-21T08:58:50;15.73;;;8.18;;
50671;SDS011;46021;55.882;37.654;2024-02-21T09:01:19;20.60;;;8.60;;
50671;SDS011;46021;55.882;37.654;2024-02-21T09:03:46;21.92;;;9.75;;
50671;SDS011;46021;55.882;37.654;2024-02-21T09:06:13;16.52;;;8.38;;
50671;SDS011;46021;55.882;37.654;2024-02-21T09:08:40;18.53;;;9.07;;
50671;SDS011;46021;55.882;37.654;2024-02-21T09:11:08;22.50;;;13.50;;
50671;SDS011;46021;55.882;37.654;2024-02-21T09:13:36;17.25;;;12.57;;
50671;SDS011;46021;55.882;37.654;2024-02-21T09:16:03;19.37;;;13.37;;
50671;SDS011;46021;55.882;37.654;2024-02-21T09:20:59;18.63;;;12.50;;
50671;SDS011;46021;55.882;37.654;2024-02-21T09:23:26;20.47;;;13.07;;
50671;SDS011;46021;55.882;37.654;2024-02-21T09:25:53;23.88;;;14.25;;
50671;SDS011;46021;55.882;37.654;2024-02-21T09:28:21;21.88;;;14.23;;
50671;SDS011;46021;55.882;37.654;2024-02-21T09:30:49;25.70;;;14.15;;
50671;SDS011;46021;55.882;37.654;2024-02-21T09:33:16;15.60;;;8.23;;
50671;SDS011;46021;55.882;37.654;2024-02-21T09:35:45;18.00;;;8.13;;
50671;SDS011;46021;55.882;37.654;2024-02-21T09:38:12;18.58;;;9.35;;
50671;SDS011;46021;55.882;37.654;2024-02-21T09:40:39;16.83;;;8.73;;
50671;SDS011;46021;55.882;37.654;2024-02-21T09:43:08;15.00;;;7.57;;
50671;SDS011;46021;55.882;37.654;2024-02-21T09:45:35;17.70;;;8.23;;
50671;SDS011;46021;55.882;37.654;2024-02-21T09:48:15;24.17;;;8.70;;
50671;SDS011;46021;55.882;37.654;2024-02-21T09:50:54;18.42;;;8.43;;
50671;SDS011;46021;55.882;37.654;2024-02-21T09:53:24;20.05;;;13.57;;
50671;SDS011;46021;55.882;37.654;2024-02-21T09:55:51;23.70;;;14.73;;
50671;SDS011;46021;55.882;37.654;2024-02-21T09:58:19;31.55;;;13.52;;
50671;SDS011;46021;55.882;37.654;2024-02-21T10:00:48;18.90;;;12.32;;
50671;SDS011;46021;55.882;37.654;2024-02-21T10:03:15;19.80;;;12.50;;
50671;SDS011;46021;55.882;37.654;2024-02-21T10:05:47;19.00;;;12.90;;
50671;SDS011;46021;55.882;37.654;2024-02-21T10:08:18;20.23;;;13.55;;
50671;SDS011;46021;55.882;37.654;2024-02-21T10:10:46;20.35;;;13.80;;
50671;SDS011;46021;55.882;37.654;2024-02-21T10:13:23;20.03;;;13.57;;
50671;SDS011;46021;55.882;37.654;2024-02-21T10:16:00;21.45;;;13.65;;
50671;SDS011;46021;55.882;37.654;2024-02-21T10:18:28;18.42;;;13.18;;
50671;SDS011;46021;55.882;37.654;2024-02-21T10:21:02;22.15;;;13.05;;
50671;SDS011;46021;55.882;37.654;2024-02-21T10:23:41;24.17;;;15.00;;
50671;SDS011;46021;55.882;37.654;2024-02-21T10:26:09;23.05;;;13.13;;
50671;SDS011;46021;55.882;37.654;2024-02-21T10:28:37;15.23;;;7.00;;
50671;SDS011;46021;55.882;37.654;2024-02-21T10:31:08;17.40;;;6.97;;
50671;SDS011;46021;55.882;37.654;2024-02-21T10:33:36;17.27;;;8.27;;
50671;SDS011;46021;55.882;37.654;2024-02-21T10:36:07;13.70;;;6.88;;
50671;SDS011;46021;55.882;37.654;2024-02-21T10:38:36;23.13;;;11.30;;
50671;SDS011;46021;55.882;37.654;2024-02-21T10:41:06;15.75;;;7.40;;
50671;SDS011;46021;55.882;37.654;2024-02-21T10:43:37;22.63;;;9.07;;
50671;SDS011;46021;55.882;37.654;2024-02-21T10:46:07;17.40;;;7.82;;
50671;SDS011;46021;55.882;37.654;2024-02-21T10:48:40;15.80;;;6.35;;
50671;SDS011;46021;55.882;37.654;2024-02-21T10:51:14;12.50;;;6.28;;
50671;SDS011;46021;55.882;37.654;2024-02-21T10:53:45;14.75;;;7.60;;
50671;SDS011;46021;55.882;37.654;2024-02-21T10:56:20;16.70;;;6.95;;
50671;SDS011;46021;55.882;37.654;2024-02-21T10:58:49;15.90;;;6.43;;
50671;SDS011;46021;55.882;37.654;2024-02-21T11:01:17;17.50;;;7.50;;
50671;SDS011;46021;55.882;37.654;2024-02-21T11:03:46;13.35;;;5.53;;
50671;SDS011;46021;55.882;37.654;2024-02-21T11:06:15;9.43;;;5.13;;
50671;SDS011;46021;55.882;37.654;2024-02-21T11:08:45;12.27;;;6.10;;
50671;SDS011;46021;55.882;37.654;2024-02-21T11:11:13;11.50;;;6.15;;
50671;SDS011;46021;55.882;37.654;2024-02-21T11:13:46;14.70;;;6.30;;
50671;SDS011;46021;55.882;37.654;2024-02-21T11:16:21;12.73;;;4.72;;
50671;SDS011;46021;55.882;37.654;2024-02-21T11:18:49;11.65;;;5.97;;
50671;SDS011;46021;55.882;37.654;2024-02-21T11:21:16;9.98;;;5.20;;
50671;SDS011;46021;55.882;37.654;2024-02-21T11:23:43;11.60;;;6.00;;
50671;SDS011;46021;55.882;37.654;2024-02-21T11:26:21;8.25;;;5.07;;
50671;SDS011;46021;55.882;37.654;2024-02-21T11:28:57;9.05;;;5.68;;
50671;SDS011;46021;55.882;37.654;2024-02-21T11:31:25;10.35;;;5.68;;
50671;SDS011;46021;55.882;37.654;2024-02-21T11:33:53;11.38;;;5.43;;
50671;SDS011;46021;55.882;37.654;2024-02-21T11:36:26;11.15;;;5.40;;
50671;SDS011;46021;55.882;37.654;2024-02-21T11:38:54;9.05;;;5.32;;
50671;SDS011;46021;55.882;37.654;2024-02-21T11:41:21;15.60;;;6.20;;
50671;SDS011;46021;55.882;37.654;2024-02-21T11:43:48;13.80;;;5.10;;
50671;SDS011;46021;55.882;37.654;2024-02-21T11:46:18;13.57;;;5.53;;
50671;SDS011;46021;55.882;37.654;2024-02-21T11:48:45;13.45;;;5.07;;
50671;SDS011;46021;55.882;37.654;2024-02-21T11:51:24;7.70;;;4.00;;
50671;SDS011;46021;55.882;37.654;2024-02-21T11:53:52;10.63;;;4.82;;
50671;SDS011;46021;55.882;37.654;2024-02-21T11:56:19;13.52;;;5.80;;
50671;SDS011;46021;55.882;37.654;2024-02-21T11:58:48;11.60;;;5.05;;
50671;SDS011;46021;55.882;37.654;2024-02-21T12:01:15;14.65;;;6.43;;
50671;SDS011;46021;55.882;37.654;2024-02-21T12:03:44;7.93;;;3.88;;
50671;SDS011;46021;55.882;37.654;2024-02-21T12:06:15;12.63;;;6.22;;
50671;SDS011;46021;55.882;37.654;2024-02-21T12:08:46;10.45;;;5.78;;
50671;SDS011;46021;55.882;37.654;2024-02-21T12:11:18;10.43;;;5.97;;
50671;SDS011;46021;55.882;37.654;2024-02-21T12:13:46;11.40;;;5.18;;
50671;SDS011;46021;55.882;37.654;2024-02-21T12:16:15;12.23;;;5.30;;
50671;SDS011;46021;55.882;37.654;2024-02-21T12:18:45;16.50;;;4.63;;
50671;SDS011;46021;55.882;37.654;2024-02-21T12:21:12;9.02;;;4.00;;
50671;SDS011;46021;55.882;37.654;2024-02-21T12:23:40;10.35;;;5.32;;
50671;SDS011;46021;55.882;37.654;2024-02-21T12:26:07;13.90;;;4.93;;
50671;SDS011;46021;55.882;37.654;2024-02-21T12:28:34;12.75;;;6.30;;
50671;SDS011;46021;55.882;37.654;2024-02-21T12:31:01;12.40;;;5.20;;
50671;SDS011;46021;55.882;37.654;2024-02-21T12:33:29;11.60;;;5.53;;
50671;SDS011;46021;55.882;37.654;2024-02-21T12:36:00;13.43;;;6.00;;
50671;SDS011;46021;55.882;37.654;2024-02-21T12:38:27;13.10;;;6.10;;
50671;SDS011;46021;55.882;37.654;2024-02-21T12:40:54;11.55;;;4.07;;
50671;SDS011;46021;55.882;37.654;2024-02-21T12:43:22;11.02;;;4.97;;
50671;SDS011;46021;55.882;37.654;2024-02-21T12:45:49;7.97;;;4.72;;
50671;SDS011;46021;55.882;37.654;2024-02-21T12:48:16;8.43;;;4.85;;
50671;SDS011;46021;55.882;37.654;2024-02-21T12:50:47;10.40;;;6.07;;
50671;SDS011;46021;55.882;37.654;2024-02-21T12:53:18;10.75;;;5.45;;
50671;SDS011;46021;55.882;37.654;2024-02-21T12:55:47;11.18;;;6.55;;
50671;SDS011;46021;55.882;37.654;2024-02-21T12:58:14;11.48;;;5.57;;
50671;SDS011;46021;55.882;37.654;2024-02-21T13:00:41;13.20;;;6.60;;
50671;SDS011;46021;55.882;37.654;2024-02-21T13:05:36;8.50;;;4.03;;
50671;SDS011;46021;55.882;37.654;2024-02-21T13:08:04;10.55;;;4.70;;
50671;SDS011;46021;55.882;37.654;2024-02-21T13:10:33;10.43;;;5.10;;
50671;SDS011;46021;55.882;37.654;2024-02-21T13:13:00;11.88;;;4.68;;
50671;SDS011;46021;55.882;37.654;2024-02-21T13:15:27;9.57;;;5.13;;
50671;SDS011;46021;55.882;37.654;2024-02-21T13:17:55;13.48;;;6.80;;
50671;SDS011;46021;55.882;37.654;2024-02-21T13:20:23;12.98;;;6.32;;
50671;SDS011;46021;55.882;37.654;2024-02-21T13:22:50;10.10;;;5.20;;
50671;SDS011;46021;55.882;37.654;2024-02-21T13:25:17;11.47;;;5.53;;
50671;SDS011;46021;55.882;37.654;2024-02-21T13:27:47;10.52;;;5.05;;
50671;SDS011;46021;55.882;37.654;2024-02-21T13:30:15;11.60;;;5.32;;
50671;SDS011;46021;55.882;37.654;2024-02-21T13:35:11;9.60;;;3.83;;
50671;SDS011;46021;55.882;37.654;2024-02-21T13:37:38;9.65;;;5.53;;
50671;SDS011;46021;55.882;37.654;2024-02-21T13:40:06;9.73;;;5.57;;
50671;SDS011;46021;55.882;37.654;2024-02-21T13:42:35;9.07;;;4.32;;
50671;SDS011;46021;55.882;37.654;2024-02-21T13:45:05;17.75;;;8.93;;
50671;SDS011;46021;55.882;37.654;2024-02-21T13:47:33;8.73;;;5.05;;
50671;SDS011;46021;55.882;37.654;2024-02-21T13:50:01;8.63;;;4.43;;
50671;SDS011;46021;55.882;37.654;2024-02-21T13:52:30;15.05;;;4.05;;
50671;SDS011;46021;55.882;37.654;2024-02-21T13:54:59;12.80;;;4.95;;
50671;SDS011;46021;55.882;37.654;2024-02-21T13:57:26;12.40;;;5.57;;
50671;SDS011;46021;55.882;37.654;2024-02-21T13:59:53;27.50;;;6.37;;
50671;SDS011;46021;55.882;37.654;2024-02-21T14:02:21;9.18;;;4.57;;
50671;SDS011;46021;55.882;37.654;2024-02-21T14:04:48;34.10;;;12.30;;
50671;SDS011;46021;55.882;37.654;2024-02-21T14:07:16;14.77;;;5.78;;
50671;SDS011;46021;55.882;37.654;2024-02-21T14:09:43;18.58;;;6.80;;
50671;SDS011;46021;55.882;37.654;2024-02-21T14:12:10;12.98;;;6.00;;
50671;SDS011;46021;55.882;37.654;2024-02-21T14:14:38;14.37;;;6.33;;
50671;SDS011;46021;55.882;37.654;2024-02-21T14:17:05;9.15;;;4.20;;
50671;SDS011;46021;55.882;37.654;2024-02-21T14:19:33;13.30;;;5.65;;
50671;SDS011;46021;55.882;37.654;2024-02-21T14:22:00;11.48;;;4.30;;
50671;SDS011;46021;55.882;37.654;2024-02-21T14:24:27;10.85;;;4.47;;
50671;SDS011;46021;55.882;37.654;2024-02-21T14:26:55;8.93;;;3.87;;
50671;SDS011;46021;55.882;37.654;2024-02-21T14:29:22;6.03;;;3.55;;
50671;SDS011;46021;55.882;37.654;2024-02-21T14:31:49;18.77;;;5.30;;
50671;SDS011;46021;55.882;37.654;2024-02-21T14:34:16;8.55;;;5.00;;
50671;SDS011;46021;55.882;37.654;2024-02-21T14:36:44;11.07;;;5.10;;
50671;SDS011;46021;55.882;37.654;2024-02-21T14:39:12;10.90;;;5.43;;
50671;SDS011;46021;55.882;37.654;2024-02-21T14:41:39;13.73;;;3.30;;
50671;SDS011;46021;55.882;37.654;2024-02-21T14:44:06;11.27;;;5.37;;